sensor_id;sensor_type;location;lat;lon;timestamp;P1;durP1;ratioP1;P2;durP2;ratioP2
47760;SDS011;33524;55.434;38.520;2023-03-07T00:02:23;4.25;;;2.10;;
47760;SDS011;33524;55.434;38.520;2023-03-07T00:04:53;2.50;;;1.67;;
47760;SDS011;33524;55.434;38.520;2023-03-07T00:07:22;2.58;;;1.65;;
47760;SDS011;33524;55.434;38.520;2023-03-07T00:09:51;4.53;;;2.10;;
47760;SDS011;33524;55.434;38.520;2023-03-07T00:12:21;2.92;;;1.85;;
47760;SDS011;33524;55.434;38.520;2023-03-07T00:14:54;4.50;;;2.30;;
47760;SDS011;33524;55.434;38.520;2023-03-07T00:17:24;6.07;;;2.62;;
47760;SDS011;33524;55.434;38.520;2023-03-07T00:19:54;4.25;;;2.47;;
47760;SDS011;33524;55.434;38.520;2023-03-07T00:22:24;3.95;;;2.28;;
47760;SDS011;33524;55.434;38.520;2023-03-07T00:24:53;4.25;;;2.30;;
47760;SDS011;33524;55.434;38.520;2023-03-07T00:27:23;4.00;;;2.25;;
47760;SDS011;33524;55.434;38.520;2023-03-07T00:29:53;2.95;;;1.60;;
47760;SDS011;33524;55.434;38.520;2023-03-07T00:32:23;4.47;;;2.33;;
47760;SDS011;33524;55.434;38.520;2023-03-07T00:34:54;2.00;;;1.50;;
47760;SDS011;33524;55.434;38.520;2023-03-07T00:37:25;4.15;;;2.47;;
47760;SDS011;33524;55.434;38.520;2023-03-07T00:39:55;2.60;;;1.83;;
47760;SDS011;33524;55.434;38.520;2023-03-07T00:42:25;4.85;;;2.03;;
47760;SDS011;33524;55.434;38.520;2023-03-07T00:44:55;4.28;;;2.85;;
47760;SDS011;33524;55.434;38.520;2023-03-07T00:47:24;5.35;;;2.10;;
47760;SDS011;33524;55.434;38.520;2023-03-07T00:49:55;2.97;;;1.75;;
47760;SDS011;33524;55.434;38.520;2023-03-07T00:52:25;2.53;;;2.05;;
47760;SDS011;33524;55.434;38.520;2023-03-07T00:54:56;3.22;;;1.62;;
47760;SDS011;33524;55.434;38.520;2023-03-07T00:57:26;3.55;;;1.55;;
47760;SDS011;33524;55.434;38.520;2023-03-07T00:59:55;5.45;;;3.30;;
47760;SDS011;33524;55.434;38.520;2023-03-07T01:02:25;2.95;;;1.80;;
47760;SDS011;33524;55.434;38.520;2023-03-07T01:04:54;2.78;;;1.70;;
47760;SDS011;33524;55.434;38.520;2023-03-07T01:07:24;4.43;;;1.98;;
47760;SDS011;33524;55.434;38.520;2023-03-07T01:09:54;2.83;;;1.75;;
47760;SDS011;33524;55.434;38.520;2023-03-07T01:12:25;3.28;;;1.90;;
47760;SDS011;33524;55.434;38.520;2023-03-07T01:14:54;3.05;;;2.00;;
47760;SDS011;33524;55.434;38.520;2023-03-07T01:17:24;3.20;;;1.80;;
47760;SDS011;33524;55.434;38.520;2023-03-07T01:19:54;3.42;;;1.62;;
47760;SDS011;33524;55.434;38.520;2023-03-07T01:22:24;2.17;;;1.50;;
47760;SDS011;33524;55.434;38.520;2023-03-07T01:24:54;4.40;;;2.70;;
47760;SDS011;33524;55.434;38.520;2023-03-07T01:27:25;2.97;;;1.73;;
47760;SDS011;33524;55.434;38.520;2023-03-07T01:29:54;4.35;;;1.92;;
47760;SDS011;33524;55.434;38.520;2023-03-07T01:32:24;3.08;;;1.77;;
47760;SDS011;33524;55.434;38.520;2023-03-07T01:34:54;3.47;;;2.15;;
47760;SDS011;33524;55.434;38.520;2023-03-07T01:37:24;3.65;;;1.90;;
47760;SDS011;33524;55.434;38.520;2023-03-07T01:39:54;4.37;;;1.73;;
47760;SDS011;33524;55.434;38.520;2023-03-07T01:42:24;2.87;;;1.90;;
47760;SDS011;33524;55.434;38.520;2023-03-07T01:48:11;2.47;;;2.10;;
47760;SDS011;33524;55.434;38.520;2023-03-07T01:50:41;2.40;;;1.60;;
47760;SDS011;33524;55.434;38.520;2023-03-07T01:53:12;2.65;;;1.60;;
47760;SDS011;33524;55.434;38.520;2023-03-07T01:55:44;3.65;;;1.65;;
47760;SDS011;33524;55.434;38.520;2023-03-07T01:58:15;2.87;;;1.90;;
47760;SDS011;33524;55.434;38.520;2023-03-07T02:00:46;2.80;;;1.87;;
47760;SDS011;33524;55.434;38.520;2023-03-07T02:05:50;2.17;;;1.70;;
47760;SDS011;33524;55.434;38.520;2023-03-07T02:08:24;2.33;;;1.60;;
47760;SDS011;33524;55.434;38.520;2023-03-07T02:11:03;3.22;;;2.00;;
47760;SDS011;33524;55.434;38.520;2023-03-07T02:13:34;3.20;;;1.83;;
47760;SDS011;33524;55.434;38.520;2023-03-07T02:16:04;2.53;;;1.50;;
47760;SDS011;33524;55.434;38.520;2023-03-07T02:18:37;2.70;;;1.70;;
47760;SDS011;33524;55.434;38.520;2023-03-07T02:21:18;3.05;;;2.30;;
47760;SDS011;33524;55.434;38.520;2023-03-07T02:24:32;3.75;;;1.70;;
47760;SDS011;33524;55.434;38.520;2023-03-07T02:26:57;2.90;;;1.60;;
47760;SDS011;33524;55.434;38.520;2023-03-07T02:29:28;2.72;;;1.65;;
47760;SDS011;33524;55.434;38.520;2023-03-07T02:31:57;3.17;;;1.77;;
47760;SDS011;33524;55.434;38.520;2023-03-07T02:34:27;1.23;;;1.12;;
47760;SDS011;33524;55.434;38.520;2023-03-07T02:37:04;2.55;;;1.42;;
47760;SDS011;33524;55.434;38.520;2023-03-07T02:39:54;2.53;;;1.52;;
47760;SDS011;33524;55.434;38.520;2023-03-07T02:42:29;4.68;;;1.90;;
47760;SDS011;33524;55.434;38.520;2023-03-07T02:45:03;3.40;;;1.70;;
47760;SDS011;33524;55.434;38.520;2023-03-07T02:47:36;2.12;;;1.67;;
47760;SDS011;33524;55.434;38.520;2023-03-07T02:50:07;1.87;;;1.55;;
47760;SDS011;33524;55.434;38.520;2023-03-07T02:52:38;2.15;;;1.62;;
47760;SDS011;33524;55.434;38.520;2023-03-07T02:55:08;3.42;;;1.40;;
47760;SDS011;33524;55.434;38.520;2023-03-07T02:57:41;1.70;;;1.45;;
47760;SDS011;33524;55.434;38.520;2023-03-07T03:00:11;2.03;;;1.70;;
47760;SDS011;33524;55.434;38.520;2023-03-07T03:02:42;3.80;;;1.98;;
47760;SDS011;33524;55.434;38.520;2023-03-07T03:05:11;3.42;;;1.90;;
47760;SDS011;33524;55.434;38.520;2023-03-07T03:07:40;1.73;;;1.30;;
47760;SDS011;33524;55.434;38.520;2023-03-07T03:10:10;2.25;;;1.90;;
47760;SDS011;33524;55.434;38.520;2023-03-07T03:12:40;2.45;;;1.90;;
47760;SDS011;33524;55.434;38.520;2023-03-07T03:15:10;2.10;;;1.45;;
47760;SDS011;33524;55.434;38.520;2023-03-07T03:17:41;3.58;;;1.73;;
47760;SDS011;33524;55.434;38.520;2023-03-07T03:20:10;3.12;;;2.12;;
47760;SDS011;33524;55.434;38.520;2023-03-07T03:22:41;2.72;;;1.45;;
47760;SDS011;33524;55.434;38.520;2023-03-07T03:25:12;2.83;;;1.85;;
47760;SDS011;33524;55.434;38.520;2023-03-07T03:27:43;3.08;;;1.40;;
47760;SDS011;33524;55.434;38.520;2023-03-07T03:30:14;3.72;;;1.75;;
47760;SDS011;33524;55.434;38.520;2023-03-07T03:32:44;3.35;;;1.85;;
47760;SDS011;33524;55.434;38.520;2023-03-07T03:35:15;3.25;;;1.90;;
47760;SDS011;33524;55.434;38.520;2023-03-07T03:37:46;1.73;;;1.33;;
47760;SDS011;33524;55.434;38.520;2023-03-07T03:40:16;3.00;;;1.90;;
47760;SDS011;33524;55.434;38.520;2023-03-07T03:42:46;5.80;;;2.15;;
47760;SDS011;33524;55.434;38.520;2023-03-07T03:45:18;4.95;;;1.70;;
47760;SDS011;33524;55.434;38.520;2023-03-07T03:47:50;2.87;;;1.90;;
47760;SDS011;33524;55.434;38.520;2023-03-07T03:50:22;2.62;;;1.77;;
47760;SDS011;33524;55.434;38.520;2023-03-07T03:52:52;1.98;;;1.45;;
47760;SDS011;33524;55.434;38.520;2023-03-07T03:55:23;2.03;;;1.65;;
47760;SDS011;33524;55.434;38.520;2023-03-07T03:57:53;1.55;;;1.45;;
47760;SDS011;33524;55.434;38.520;2023-03-07T04:00:23;4.80;;;2.08;;
47760;SDS011;33524;55.434;38.520;2023-03-07T04:02:53;2.00;;;1.62;;
47760;SDS011;33524;55.434;38.520;2023-03-07T04:05:26;3.78;;;1.90;;
47760;SDS011;33524;55.434;38.520;2023-03-07T04:07:57;6.18;;;1.98;;
47760;SDS011;33524;55.434;38.520;2023-03-07T04:10:26;3.28;;;1.98;;
47760;SDS011;33524;55.434;38.520;2023-03-07T04:12:55;3.20;;;2.28;;
47760;SDS011;33524;55.434;38.520;2023-03-07T04:15:26;3.35;;;2.15;;
47760;SDS011;33524;55.434;38.520;2023-03-07T04:17:55;2.20;;;1.98;;
47760;SDS011;33524;55.434;38.520;2023-03-07T04:20:25;2.87;;;1.90;;
47760;SDS011;33524;55.434;38.520;2023-03-07T04:22:55;4.60;;;2.33;;
47760;SDS011;33524;55.434;38.520;2023-03-07T04:25:24;4.55;;;2.05;;
47760;SDS011;33524;55.434;38.520;2023-03-07T04:27:53;3.30;;;2.33;;
47760;SDS011;33524;55.434;38.520;2023-03-07T04:30:24;4.57;;;2.30;;
47760;SDS011;33524;55.434;38.520;2023-03-07T04:32:54;5.45;;;1.65;;
47760;SDS011;33524;55.434;38.520;2023-03-07T04:35:24;2.00;;;1.52;;
47760;SDS011;33524;55.434;38.520;2023-03-07T04:37:54;3.33;;;2.12;;
47760;SDS011;33524;55.434;38.520;2023-03-07T04:40:24;3.22;;;1.67;;
47760;SDS011;33524;55.434;38.520;2023-03-07T04:42:53;4.00;;;2.53;;
47760;SDS011;33524;55.434;38.520;2023-03-07T04:45:23;4.85;;;2.20;;
47760;SDS011;33524;55.434;38.520;2023-03-07T04:47:53;4.80;;;2.58;;
47760;SDS011;33524;55.434;38.520;2023-03-07T04:50:24;4.55;;;2.60;;
47760;SDS011;33524;55.434;38.520;2023-03-07T04:52:53;4.55;;;1.70;;
47760;SDS011;33524;55.434;38.520;2023-03-07T04:55:23;7.22;;;2.45;;
47760;SDS011;33524;55.434;38.520;2023-03-07T04:57:53;4.90;;;2.80;;
47760;SDS011;33524;55.434;38.520;2023-03-07T05:00:26;6.07;;;2.45;;
47760;SDS011;33524;55.434;38.520;2023-03-07T05:02:56;4.30;;;2.25;;
47760;SDS011;33524;55.434;38.520;2023-03-07T05:05:27;2.40;;;1.87;;
47760;SDS011;33524;55.434;38.520;2023-03-07T05:07:56;7.57;;;2.97;;
47760;SDS011;33524;55.434;38.520;2023-03-07T05:10:29;5.03;;;2.20;;
47760;SDS011;33524;55.434;38.520;2023-03-07T05:13:02;4.30;;;2.72;;
47760;SDS011;33524;55.434;38.520;2023-03-07T05:15:32;6.68;;;2.83;;
47760;SDS011;33524;55.434;38.520;2023-03-07T05:18:02;1.83;;;1.52;;
47760;SDS011;33524;55.434;38.520;2023-03-07T05:20:33;3.80;;;1.98;;
47760;SDS011;33524;55.434;38.520;2023-03-07T05:23:02;6.72;;;3.37;;
47760;SDS011;33524;55.434;38.520;2023-03-07T05:25:32;4.72;;;2.85;;
47760;SDS011;33524;55.434;38.520;2023-03-07T05:28:02;3.37;;;2.58;;
47760;SDS011;33524;55.434;38.520;2023-03-07T05:30:32;6.03;;;3.03;;
47760;SDS011;33524;55.434;38.520;2023-03-07T05:33:02;4.72;;;2.70;;
47760;SDS011;33524;55.434;38.520;2023-03-07T05:35:33;4.47;;;2.35;;
47760;SDS011;33524;55.434;38.520;2023-03-07T05:38:03;5.87;;;2.45;;
47760;SDS011;33524;55.434;38.520;2023-03-07T05:40:32;6.20;;;3.40;;
47760;SDS011;33524;55.434;38.520;2023-03-07T05:43:05;6.40;;;2.85;;
47760;SDS011;33524;55.434;38.520;2023-03-07T05:45:35;2.22;;;1.73;;
47760;SDS011;33524;55.434;38.520;2023-03-07T05:48:06;8.27;;;3.70;;
47760;SDS011;33524;55.434;38.520;2023-03-07T05:50:36;5.20;;;2.40;;
47760;SDS011;33524;55.434;38.520;2023-03-07T05:53:07;6.43;;;3.20;;
47760;SDS011;33524;55.434;38.520;2023-03-07T05:55:36;9.10;;;3.90;;
47760;SDS011;33524;55.434;38.520;2023-03-07T05:58:08;8.30;;;3.65;;
47760;SDS011;33524;55.434;38.520;2023-03-07T06:00:38;9.13;;;3.75;;
47760;SDS011;33524;55.434;38.520;2023-03-07T06:03:10;6.22;;;2.83;;
47760;SDS011;33524;55.434;38.520;2023-03-07T06:05:41;7.43;;;3.30;;
47760;SDS011;33524;55.434;38.520;2023-03-07T06:08:13;10.05;;;2.92;;
47760;SDS011;33524;55.434;38.520;2023-03-07T06:10:42;7.62;;;3.05;;
47760;SDS011;33524;55.434;38.520;2023-03-07T06:13:14;10.32;;;4.40;;
47760;SDS011;33524;55.434;38.520;2023-03-07T06:15:48;11.52;;;4.93;;
47760;SDS011;33524;55.434;38.520;2023-03-07T06:18:20;12.68;;;4.05;;
47760;SDS011;33524;55.434;38.520;2023-03-07T06:20:54;8.02;;;4.05;;
47760;SDS011;33524;55.434;38.520;2023-03-07T06:23:31;9.25;;;4.10;;
47760;SDS011;33524;55.434;38.520;2023-03-07T06:26:05;6.55;;;3.20;;
47760;SDS011;33524;55.434;38.520;2023-03-07T06:28:37;5.15;;;2.65;;
47760;SDS011;33524;55.434;38.520;2023-03-07T06:31:11;6.05;;;3.55;;
47760;SDS011;33524;55.434;38.520;2023-03-07T06:33:43;8.73;;;3.85;;
47760;SDS011;33524;55.434;38.520;2023-03-07T06:36:14;4.57;;;2.80;;
47760;SDS011;33524;55.434;38.520;2023-03-07T06:38:48;4.40;;;2.87;;
47760;SDS011;33524;55.434;38.520;2023-03-07T06:41:17;5.70;;;2.92;;
47760;SDS011;33524;55.434;38.520;2023-03-07T06:43:50;8.10;;;3.12;;
47760;SDS011;33524;55.434;38.520;2023-03-07T06:46:23;9.80;;;4.90;;
47760;SDS011;33524;55.434;38.520;2023-03-07T06:48:55;9.13;;;4.55;;
47760;SDS011;33524;55.434;38.520;2023-03-07T06:51:25;5.53;;;3.05;;
47760;SDS011;33524;55.434;38.520;2023-03-07T06:53:55;8.73;;;2.78;;
47760;SDS011;33524;55.434;38.520;2023-03-07T06:56:26;4.62;;;2.87;;
47760;SDS011;33524;55.434;38.520;2023-03-07T06:58:58;9.57;;;2.92;;
47760;SDS011;33524;55.434;38.520;2023-03-07T07:01:28;10.00;;;4.43;;
47760;SDS011;33524;55.434;38.520;2023-03-07T07:03:58;4.25;;;2.15;;
47760;SDS011;33524;55.434;38.520;2023-03-07T07:06:28;6.70;;;2.62;;
47760;SDS011;33524;55.434;38.520;2023-03-07T07:09:00;3.30;;;1.45;;
47760;SDS011;33524;55.434;38.520;2023-03-07T07:11:31;9.45;;;2.90;;
47760;SDS011;33524;55.434;38.520;2023-03-07T07:14:02;3.30;;;2.00;;
47760;SDS011;33524;55.434;38.520;2023-03-07T07:16:31;2.03;;;1.40;;
47760;SDS011;33524;55.434;38.520;2023-03-07T07:19:04;2.00;;;1.52;;
47760;SDS011;33524;55.434;38.520;2023-03-07T07:21:41;4.12;;;2.80;;
47760;SDS011;33524;55.434;38.520;2023-03-07T07:24:15;3.17;;;2.12;;
47760;SDS011;33524;55.434;38.520;2023-03-07T07:26:44;3.95;;;2.40;;
47760;SDS011;33524;55.434;38.520;2023-03-07T07:29:14;5.22;;;1.50;;
47760;SDS011;33524;55.434;38.520;2023-03-07T07:31:45;6.15;;;2.08;;
47760;SDS011;33524;55.434;38.520;2023-03-07T07:34:16;4.00;;;2.03;;
47760;SDS011;33524;55.434;38.520;2023-03-07T07:36:46;3.00;;;2.12;;
47760;SDS011;33524;55.434;38.520;2023-03-07T07:39:15;0.60;;;0.60;;
47760;SDS011;33524;55.434;38.520;2023-03-07T07:41:46;7.28;;;2.45;;
47760;SDS011;33524;55.434;38.520;2023-03-07T07:44:18;4.30;;;2.87;;
47760;SDS011;33524;55.434;38.520;2023-03-07T07:46:48;3.87;;;1.25;;
47760;SDS011;33524;55.434;38.520;2023-03-07T07:49:18;6.15;;;2.28;;
47760;SDS011;33524;55.434;38.520;2023-03-07T07:51:47;1.95;;;1.80;;
47760;SDS011;33524;55.434;38.520;2023-03-07T07:54:17;5.60;;;2.42;;
47760;SDS011;33524;55.434;38.520;2023-03-07T07:56:47;2.50;;;1.35;;
47760;SDS011;33524;55.434;38.520;2023-03-07T07:59:17;5.80;;;3.20;;
47760;SDS011;33524;55.434;38.520;2023-03-07T08:01:47;1.85;;;1.30;;
47760;SDS011;33524;55.434;38.520;2023-03-07T08:04:17;2.37;;;2.12;;
47760;SDS011;33524;55.434;38.520;2023-03-07T08:06:46;5.37;;;2.40;;
47760;SDS011;33524;55.434;38.520;2023-03-07T08:09:16;3.87;;;2.95;;
47760;SDS011;33524;55.434;38.520;2023-03-07T08:11:46;9.43;;;2.08;;
47760;SDS011;33524;55.434;38.520;2023-03-07T08:14:16;4.70;;;2.35;;
47760;SDS011;33524;55.434;38.520;2023-03-07T08:16:46;6.40;;;2.72;;
47760;SDS011;33524;55.434;38.520;2023-03-07T08:19:15;1.75;;;1.48;;
47760;SDS011;33524;55.434;38.520;2023-03-07T08:21:46;4.28;;;1.67;;
47760;SDS011;33524;55.434;38.520;2023-03-07T08:24:17;2.53;;;1.87;;
47760;SDS011;33524;55.434;38.520;2023-03-07T08:26:50;5.10;;;2.53;;
47760;SDS011;33524;55.434;38.520;2023-03-07T08:29:19;7.60;;;3.22;;
47760;SDS011;33524;55.434;38.520;2023-03-07T08:31:53;1.17;;;1.10;;
47760;SDS011;33524;55.434;38.520;2023-03-07T08:34:22;3.00;;;1.35;;
47760;SDS011;33524;55.434;38.520;2023-03-07T08:36:52;2.33;;;2.12;;
47760;SDS011;33524;55.434;38.520;2023-03-07T08:39:22;3.92;;;2.08;;
47760;SDS011;33524;55.434;38.520;2023-03-07T08:42:01;4.25;;;1.95;;
47760;SDS011;33524;55.434;38.520;2023-03-07T08:44:31;3.28;;;2.08;;
47760;SDS011;33524;55.434;38.520;2023-03-07T08:47:03;8.13;;;2.37;;
47760;SDS011;33524;55.434;38.520;2023-03-07T08:49:32;3.97;;;2.58;;
47760;SDS011;33524;55.434;38.520;2023-03-07T08:52:03;9.48;;;2.78;;
47760;SDS011;33524;55.434;38.520;2023-03-07T08:54:32;2.00;;;1.58;;
47760;SDS011;33524;55.434;38.520;2023-03-07T08:57:03;3.80;;;1.50;;
47760;SDS011;33524;55.434;38.520;2023-03-07T08:59:33;4.05;;;2.03;;
47760;SDS011;33524;55.434;38.520;2023-03-07T09:02:03;3.70;;;2.25;;
47760;SDS011;33524;55.434;38.520;2023-03-07T09:04:33;3.70;;;2.30;;
47760;SDS011;33524;55.434;38.520;2023-03-07T09:07:02;2.90;;;1.83;;
47760;SDS011;33524;55.434;38.520;2023-03-07T09:09:32;8.02;;;3.30;;
47760;SDS011;33524;55.434;38.520;2023-03-07T09:12:02;7.93;;;2.28;;
47760;SDS011;33524;55.434;38.520;2023-03-07T09:14:33;5.97;;;3.03;;
47760;SDS011;33524;55.434;38.520;2023-03-07T09:17:02;5.40;;;2.40;;
47760;SDS011;33524;55.434;38.520;2023-03-07T09:19:32;4.12;;;2.35;;
47760;SDS011;33524;55.434;38.520;2023-03-07T09:22:02;7.12;;;3.75;;
47760;SDS011;33524;55.434;38.520;2023-03-07T09:24:35;4.70;;;2.87;;
47760;SDS011;33524;55.434;38.520;2023-03-07T09:27:05;5.55;;;2.60;;
47760;SDS011;33524;55.434;38.520;2023-03-07T09:29:40;5.18;;;3.05;;
47760;SDS011;33524;55.434;38.520;2023-03-07T09:32:11;5.15;;;3.15;;
47760;SDS011;33524;55.434;38.520;2023-03-07T09:34:40;5.68;;;2.95;;
47760;SDS011;33524;55.434;38.520;2023-03-07T09:37:10;6.57;;;3.17;;
47760;SDS011;33524;55.434;38.520;2023-03-07T09:39:40;4.12;;;1.85;;
47760;SDS011;33524;55.434;38.520;2023-03-07T09:42:26;3.95;;;2.28;;
47760;SDS011;33524;55.434;38.520;2023-03-07T09:46:12;3.42;;;2.22;;
47760;SDS011;33524;55.434;38.520;2023-03-07T09:48:21;3.70;;;2.00;;
47760;SDS011;33524;55.434;38.520;2023-03-07T09:51:24;6.62;;;3.00;;
47760;SDS011;33524;55.434;38.520;2023-03-07T09:54:19;4.75;;;2.65;;
47760;SDS011;33524;55.434;38.520;2023-03-07T09:56:54;1.65;;;1.33;;
47760;SDS011;33524;55.434;38.520;2023-03-07T09:59:33;7.93;;;3.58;;
47760;SDS011;33524;55.434;38.520;2023-03-07T10:02:48;6.85;;;2.45;;
47760;SDS011;33524;55.434;38.520;2023-03-07T10:10:23;2.80;;;2.50;;
47760;SDS011;33524;55.434;38.520;2023-03-07T10:15:47;5.00;;;1.98;;
47760;SDS011;33524;55.434;38.520;2023-03-07T10:18:44;2.60;;;1.90;;
47760;SDS011;33524;55.434;38.520;2023-03-07T10:21:24;5.50;;;2.65;;
47760;SDS011;33524;55.434;38.520;2023-03-07T10:26:47;4.05;;;2.12;;
47760;SDS011;33524;55.434;38.520;2023-03-07T10:29:27;2.37;;;1.57;;
47760;SDS011;33524;55.434;38.520;2023-03-07T10:34:50;4.12;;;2.60;;
47760;SDS011;33524;55.434;38.520;2023-03-07T10:37:35;5.32;;;2.60;;
47760;SDS011;33524;55.434;38.520;2023-03-07T10:40:19;4.57;;;2.58;;
47760;SDS011;33524;55.434;38.520;2023-03-07T10:43:15;4.25;;;2.40;;
47760;SDS011;33524;55.434;38.520;2023-03-07T10:45:57;2.47;;;1.90;;
47760;SDS011;33524;55.434;38.520;2023-03-07T10:52:25;6.47;;;2.62;;
47760;SDS011;33524;55.434;38.520;2023-03-07T10:54:32;6.80;;;2.30;;
47760;SDS011;33524;55.434;38.520;2023-03-07T10:57:06;3.85;;;2.22;;
47760;SDS011;33524;55.434;38.520;2023-03-07T11:02:47;4.57;;;2.67;;
47760;SDS011;33524;55.434;38.520;2023-03-07T11:05:44;3.97;;;2.22;;
47760;SDS011;33524;55.434;38.520;2023-03-07T11:07:59;2.53;;;1.55;;
47760;SDS011;33524;55.434;38.520;2023-03-07T11:10:47;2.90;;;1.60;;
47760;SDS011;33524;55.434;38.520;2023-03-07T11:13:18;2.53;;;1.58;;
47760;SDS011;33524;55.434;38.520;2023-03-07T11:15:49;4.87;;;2.27;;
47760;SDS011;33524;55.434;38.520;2023-03-07T11:18:38;1.98;;;1.55;;
47760;SDS011;33524;55.434;38.520;2023-03-07T11:21:27;3.17;;;1.83;;
47760;SDS011;33524;55.434;38.520;2023-03-07T11:26:38;4.87;;;1.60;;
47760;SDS011;33524;55.434;38.520;2023-03-07T11:29:09;2.55;;;2.20;;
47760;SDS011;33524;55.434;38.520;2023-03-07T11:45:44;3.70;;;2.45;;
47760;SDS011;33524;55.434;38.520;2023-03-07T11:51:36;2.35;;;0.90;;
47760;SDS011;33524;55.434;38.520;2023-03-07T11:54:30;3.92;;;1.62;;
47760;SDS011;33524;55.434;38.520;2023-03-07T12:05:43;2.90;;;1.90;;
47760;SDS011;33524;55.434;38.520;2023-03-07T12:11:30;2.62;;;1.92;;
47760;SDS011;33524;55.434;38.520;2023-03-07T12:14:51;2.20;;;1.42;;
47760;SDS011;33524;55.434;38.520;2023-03-07T12:23:26;2.17;;;1.45;;
47760;SDS011;33524;55.434;38.520;2023-03-07T12:26:05;2.53;;;1.87;;
47760;SDS011;33524;55.434;38.520;2023-03-07T12:28:46;1.40;;;1.17;;
47760;SDS011;33524;55.434;38.520;2023-03-07T12:31:25;7.07;;;2.08;;
47760;SDS011;33524;55.434;38.520;2023-03-07T12:34:06;7.75;;;2.17;;
47760;SDS011;33524;55.434;38.520;2023-03-07T12:36:49;2.37;;;1.62;;
47760;SDS011;33524;55.434;38.520;2023-03-07T12:39:58;1.85;;;1.67;;
47760;SDS011;33524;55.434;38.520;2023-03-07T12:42:26;3.78;;;2.10;;
47760;SDS011;33524;55.434;38.520;2023-03-07T12:45:17;3.97;;;2.42;;
47760;SDS011;33524;55.434;38.520;2023-03-07T12:47:58;3.10;;;1.85;;
47760;SDS011;33524;55.434;38.520;2023-03-07T12:50:37;3.17;;;2.10;;
47760;SDS011;33524;55.434;38.520;2023-03-07T12:53:32;2.15;;;1.62;;
47760;SDS011;33524;55.434;38.520;2023-03-07T12:56:10;1.12;;;0.93;;
47760;SDS011;33524;55.434;38.520;2023-03-07T13:01:46;6.53;;;2.35;;
47760;SDS011;33524;55.434;38.520;2023-03-07T13:04:28;1.40;;;1.23;;
47760;SDS011;33524;55.434;38.520;2023-03-07T13:07:07;2.45;;;1.48;;
47760;SDS011;33524;55.434;38.520;2023-03-07T13:09:43;3.70;;;1.83;;
47760;SDS011;33524;55.434;38.520;2023-03-07T13:12:29;5.27;;;1.87;;
47760;SDS011;33524;55.434;38.520;2023-03-07T13:15:02;2.10;;;1.08;;
47760;SDS011;33524;55.434;38.520;2023-03-07T13:23:34;3.62;;;2.12;;
47760;SDS011;33524;55.434;38.520;2023-03-07T13:25:55;2.90;;;1.90;;
47760;SDS011;33524;55.434;38.520;2023-03-07T13:28:30;4.32;;;2.45;;
47760;SDS011;33524;55.434;38.520;2023-03-07T13:33:48;2.22;;;1.52;;
47760;SDS011;33524;55.434;38.520;2023-03-07T13:36:35;1.95;;;1.45;;
47760;SDS011;33524;55.434;38.520;2023-03-07T13:39:37;3.20;;;2.08;;
47760;SDS011;33524;55.434;38.520;2023-03-07T13:42:47;1.75;;;1.27;;
47760;SDS011;33524;55.434;38.520;2023-03-07T13:48:11;2.62;;;1.77;;
47760;SDS011;33524;55.434;38.520;2023-03-07T13:56:20;1.30;;;0.73;;
47760;SDS011;33524;55.434;38.520;2023-03-07T13:58:58;3.00;;;2.05;;
47760;SDS011;33524;55.434;38.520;2023-03-07T14:01:35;2.08;;;1.60;;
47760;SDS011;33524;55.434;38.520;2023-03-07T14:04:16;2.05;;;1.50;;
47760;SDS011;33524;55.434;38.520;2023-03-07T14:07:09;3.42;;;1.77;;
47760;SDS011;33524;55.434;38.520;2023-03-07T14:09:57;2.62;;;1.87;;
47760;SDS011;33524;55.434;38.520;2023-03-07T14:19:02;5.93;;;2.65;;
47760;SDS011;33524;55.434;38.520;2023-03-07T14:22:04;2.92;;;2.12;;
47760;SDS011;33524;55.434;38.520;2023-03-07T14:27:50;8.65;;;3.03;;
47760;SDS011;33524;55.434;38.520;2023-03-07T14:30:24;7.15;;;2.87;;
47760;SDS011;33524;55.434;38.520;2023-03-07T14:32:58;3.90;;;2.12;;
47760;SDS011;33524;55.434;38.520;2023-03-07T14:35:43;3.47;;;2.08;;
47760;SDS011;33524;55.434;38.520;2023-03-07T14:38:16;7.10;;;2.90;;
47760;SDS011;33524;55.434;38.520;2023-03-07T14:40:55;4.53;;;2.75;;
47760;SDS011;33524;55.434;38.520;2023-03-07T14:46:27;4.80;;;2.42;;
47760;SDS011;33524;55.434;38.520;2023-03-07T14:52:17;5.37;;;3.17;;
47760;SDS011;33524;55.434;38.520;2023-03-07T14:54:58;4.03;;;2.17;;
47760;SDS011;33524;55.434;38.520;2023-03-07T15:03:11;2.08;;;1.25;;
47760;SDS011;33524;55.434;38.520;2023-03-07T15:05:34;2.45;;;1.87;;
47760;SDS011;33524;55.434;38.520;2023-03-07T15:08:15;2.12;;;1.80;;
47760;SDS011;33524;55.434;38.520;2023-03-07T15:10:48;0.85;;;0.85;;
47760;SDS011;33524;55.434;38.520;2023-03-07T15:16:30;4.57;;;1.85;;
47760;SDS011;33524;55.434;38.520;2023-03-07T15:21:36;1.27;;;1.17;;
47760;SDS011;33524;55.434;38.520;2023-03-07T15:24:17;2.80;;;1.70;;
47760;SDS011;33524;55.434;38.520;2023-03-07T15:26:51;2.55;;;1.52;;
47760;SDS011;33524;55.434;38.520;2023-03-07T15:29:23;2.20;;;1.50;;
47760;SDS011;33524;55.434;38.520;2023-03-07T15:31:58;2.80;;;1.70;;
47760;SDS011;33524;55.434;38.520;2023-03-07T15:34:32;2.58;;;1.60;;
47760;SDS011;33524;55.434;38.520;2023-03-07T15:40:54;4.57;;;2.90;;
47760;SDS011;33524;55.434;38.520;2023-03-07T15:43:13;3.60;;;2.40;;
47760;SDS011;33524;55.434;38.520;2023-03-07T15:46:02;3.47;;;2.37;;
47760;SDS011;33524;55.434;38.520;2023-03-07T15:48:49;4.43;;;2.37;;
47760;SDS011;33524;55.434;38.520;2023-03-07T15:51:21;5.25;;;2.83;;
47760;SDS011;33524;55.434;38.520;2023-03-07T15:54:03;6.25;;;2.22;;
47760;SDS011;33524;55.434;38.520;2023-03-07T15:56:59;2.58;;;1.90;;
47760;SDS011;33524;55.434;38.520;2023-03-07T15:59:34;3.65;;;2.67;;
47760;SDS011;33524;55.434;38.520;2023-03-07T16:02:38;3.72;;;2.25;;
47760;SDS011;33524;55.434;38.520;2023-03-07T16:07:51;4.20;;;2.53;;
47760;SDS011;33524;55.434;38.520;2023-03-07T16:10:25;5.20;;;3.33;;
47760;SDS011;33524;55.434;38.520;2023-03-07T16:15:27;6.93;;;3.55;;
47760;SDS011;33524;55.434;38.520;2023-03-07T16:17:57;4.55;;;3.12;;
47760;SDS011;33524;55.434;38.520;2023-03-07T16:20:27;4.03;;;3.20;;
47760;SDS011;33524;55.434;38.520;2023-03-07T16:23:09;4.50;;;2.80;;
47760;SDS011;33524;55.434;38.520;2023-03-07T16:25:41;4.90;;;3.47;;
47760;SDS011;33524;55.434;38.520;2023-03-07T16:28:11;4.68;;;3.33;;
47760;SDS011;33524;55.434;38.520;2023-03-07T16:30:42;6.35;;;4.15;;
47760;SDS011;33524;55.434;38.520;2023-03-07T16:33:13;5.32;;;3.40;;
47760;SDS011;33524;55.434;38.520;2023-03-07T16:35:43;8.18;;;4.60;;
47760;SDS011;33524;55.434;38.520;2023-03-07T16:38:13;10.10;;;6.05;;
47760;SDS011;33524;55.434;38.520;2023-03-07T16:40:43;10.60;;;5.75;;
47760;SDS011;33524;55.434;38.520;2023-03-07T16:43:44;9.40;;;5.75;;
47760;SDS011;33524;55.434;38.520;2023-03-07T16:46:05;11.30;;;5.47;;
47760;SDS011;33524;55.434;38.520;2023-03-07T16:48:39;11.10;;;5.22;;
47760;SDS011;33524;55.434;38.520;2023-03-07T16:51:15;7.65;;;4.47;;
47760;SDS011;33524;55.434;38.520;2023-03-07T16:53:47;6.35;;;3.67;;
47760;SDS011;33524;55.434;38.520;2023-03-07T16:56:28;10.95;;;4.05;;
47760;SDS011;33524;55.434;38.520;2023-03-07T16:59:01;6.20;;;3.15;;
47760;SDS011;33524;55.434;38.520;2023-03-07T17:01:32;6.07;;;3.67;;
47760;SDS011;33524;55.434;38.520;2023-03-07T17:04:01;5.65;;;2.75;;
47760;SDS011;33524;55.434;38.520;2023-03-07T17:06:30;6.45;;;3.62;;
47760;SDS011;33524;55.434;38.520;2023-03-07T17:09:07;7.50;;;3.20;;
47760;SDS011;33524;55.434;38.520;2023-03-07T17:11:48;5.50;;;2.25;;
47760;SDS011;33524;55.434;38.520;2023-03-07T17:14:20;3.05;;;2.62;;